Time;durP1;ratioP1;P1;durP2;ratioP2;P2;SDS_P1;SDS_P2;PMS_P1;PMS_P2;Temp;Humidity;BMP_temperature;BMP_pressure;BME280_temperature;BME280_humidity;BME280_pressure;Samples;Min_cycle;Max_cycle;Signal;HPM_P1;HPM_P2
2022/06/11 00:01:36;;;;;;;1.60;0.60;;;;;;;14.98;100.00;94804.22;4979863;28;20057;-92
2022/06/11 00:04:05;;;;;;;2.65;0.70;;;;;;;15.12;100.00;94801.69;4978541;28;20425;-91
2022/06/11 00:06:36;;;;;;;4.00;0.70;;;;;;;15.52;100.00;94800.59;4978278;28;20090;-91
2022/06/11 00:09:02;;;;;;;2.47;0.70;;;;;;;15.79;100.00;94804.41;4978158;28;20022;-90
2022/06/11 00:11:28;;;;;;;3.38;0.93;;;;;;;15.83;100.00;94800.88;4979639;28;20376;-91
2022/06/11 00:13:53;;;;;;;1.50;0.77;;;;;;;15.93;100.00;94799.97;4978451;28;20090;-91
2022/06/11 00:16:21;;;;;;;3.42;0.90;;;;;;;15.93;100.00;94801.81;4978003;28;20034;-90
2022/06/11 00:18:47;;;;;;;5.38;0.70;;;;;;;15.57;100.00;94800.50;4977931;28;20077;-90
2022/06/11 00:21:14;;;;;;;4.15;0.65;;;;;;;15.21;100.00;94804.47;4978023;28;20336;-90
2022/06/11 00:23:40;;;;;;;1.13;0.65;;;;;;;15.24;100.00;94800.47;4978186;28;20460;-89
2022/06/11 00:26:07;;;;;;;1.55;0.60;;;;;;;15.57;100.00;94805.78;4962688;28;20166;-90
2022/06/11 00:28:33;;;;;;;2.45;0.70;;;;;;;15.64;100.00;94795.66;4981107;28;20032;-90
2022/06/11 00:30:59;;;;;;;1.20;0.52;;;;;;;15.57;100.00;94795.22;4987548;28;20426;-89
2022/06/11 00:33:24;;;;;;;0.75;0.50;;;;;;;15.09;100.00;94794.34;4992088;28;20108;-90
2022/06/11 00:35:51;;;;;;;5.63;0.40;;;;;;;15.05;100.00;94793.31;4993039;28;20026;-89
2022/06/11 00:38:17;;;;;;;0.88;0.50;;;;;;;15.40;100.00;94791.25;4972919;28;20344;-90
2022/06/11 00:40:46;;;;;;;3.45;0.80;;;;;;;15.60;100.00;94789.38;4977800;28;20444;-90
2022/06/11 00:43:14;;;;;;;5.90;0.68;;;;;;;15.35;100.00;94793.19;4991103;28;20026;-90
2022/06/11 00:45:45;;;;;;;0.90;0.63;;;;;;;14.93;100.00;94785.06;4996969;28;20068;-91
2022/06/11 00:48:28;;;;;;;2.20;0.70;;;;;;;14.90;100.00;94786.41;4996827;28;20037;-90
2022/06/11 00:51:01;;;;;;;4.63;0.70;;;;;;;15.13;100.00;94784.78;4996815;28;20161;-90
2022/06/11 00:53:44;;;;;;;1.35;0.63;;;;;;;14.96;100.00;94781.84;4980891;28;20465;-90
2022/06/11 00:56:13;;;;;;;1.30;0.50;;;;;;;15.29;100.00;94781.16;4996777;28;20105;-92
2022/06/11 00:58:42;;;;;;;5.00;0.70;;;;;;;15.07;100.00;94783.28;4980676;28;20026;-90
2022/06/11 01:01:08;;;;;;;2.67;0.90;;;;;;;15.13;100.00;94783.97;4980697;28;20026;-89
2022/06/11 01:03:38;;;;;;;3.13;0.68;;;;;;;15.41;100.00;94786.75;4996908;28;20026;-90
2022/06/11 01:06:25;;;;;;;2.60;0.90;;;;;;;15.49;100.00;94782.66;4996645;28;20447;-91
2022/06/11 01:09:19;;;;;;;1.33;0.63;;;;;;;15.05;100.00;94785.41;4997534;28;20103;-91
2022/06/11 01:12:17;;;;;;;1.20;0.70;;;;;;;15.26;100.00;94790.41;4996754;28;20022;-91
2022/06/11 01:15:03;;;;;;;1.38;0.73;;;;;;;15.29;100.00;94789.06;4996453;28;20026;-90
2022/06/11 01:17:49;;;;;;;1.33;0.70;;;;;;;15.28;100.00;94785.63;4996503;28;20034;-91
2022/06/11 01:20:30;;;;;;;4.38;0.85;;;;;;;14.87;100.00;94788.81;4980491;28;20038;-91
2022/06/11 01:23:17;;;;;;;1.50;0.70;;;;;;;15.02;100.00;94777.28;4997605;28;20100;-91
2022/06/11 01:26:08;;;;;;;3.15;0.85;;;;;;;14.89;100.00;94781.41;4997494;28;20030;-91
2022/06/11 01:29:03;;;;;;;4.90;0.70;;;;;;;14.76;100.00;94781.03;4980209;28;20030;-91
2022/06/11 01:31:32;;;;;;;3.47;0.57;;;;;;;15.03;100.00;94787.53;4997737;28;20029;-91
2022/06/11 01:34:40;;;;;;;1.25;0.65;;;;;;;15.04;100.00;94789.13;4996279;28;20080;-91
2022/06/11 01:37:12;;;;;;;0.80;0.50;;;;;;;14.87;100.00;94786.19;4976641;28;20049;-91
2022/06/11 01:39:53;;;;;;;0.95;0.82;;;;;;;14.86;100.00;94784.63;4980083;28;20026;-91
2022/06/11 01:42:29;;;;;;;1.10;0.70;;;;;;;14.99;100.00;94789.19;4996210;28;20061;-91
2022/06/11 01:45:15;;;;;;;1.42;0.60;;;;;;;14.79;100.00;94788.41;4980443;28;20384;-92
2022/06/11 01:47:42;;;;;;;2.75;0.70;;;;;;;15.06;100.00;94786.19;4980021;28;20100;-91
2022/06/11 01:50:09;;;;;;;2.13;0.60;;;;;;;15.17;100.00;94790.28;4996255;28;20038;-90
2022/06/11 01:52:44;;;;;;;1.00;0.70;;;;;;;15.32;100.00;94783.97;4995968;28;20030;-92
2022/06/11 01:55:28;;;;;;;0.57;0.55;;;;;;;14.99;100.00;94786.56;4999880;28;20037;-90
2022/06/11 01:58:39;;;;;;;0.70;0.50;;;;;;;15.18;100.00;94793.69;5001286;28;20046;-91
2022/06/11 02:01:32;;;;;;;1.48;0.80;;;;;;;15.24;100.00;94789.91;4977949;28;20042;-91
2022/06/11 02:04:19;;;;;;;1.52;0.60;;;;;;;15.34;100.00;94781.06;5000015;28;20037;-91
2022/06/11 02:07:16;;;;;;;2.75;0.70;;;;;;;15.36;100.00;94782.34;5000023;28;20037;-91
2022/06/11 02:10:12;;;;;;;1.33;0.50;;;;;;;15.18;100.00;94781.28;4975570;28;20101;-91
2022/06/11 02:12:43;;;;;;;0.93;0.60;;;;;;;15.43;100.00;94782.00;5000119;28;20121;-90
2022/06/11 02:15:26;;;;;;;1.67;0.70;;;;;;;15.48;100.00;94789.03;4999689;28;20038;-90
2022/06/11 02:17:53;;;;;;;;;;;;;;;15.25;100.00;94786.22;5000411;28;20034;-91
2022/06/11 02:20:28;;;;;;;0.90;0.68;;;;;;;15.11;100.00;94784.28;4983537;28;20319;-90
2022/06/11 02:23:04;;;;;;;1.25;0.70;;;;;;;14.84;100.00;94787.53;4983658;28;20436;-91
2022/06/11 02:25:34;;;;;;;0.70;0.63;;;;;;;15.10;100.00;94795.09;4999887;28;20022;-91
2022/06/11 02:28:03;;;;;;;0.85;0.60;;;;;;;15.01;100.00;94784.41;4999490;28;20026;-91
2022/06/11 02:30:30;;;;;;;1.77;0.75;;;;;;;15.19;100.00;94789.97;4999317;28;20026;-90
2022/06/11 02:32:56;;;;;;;2.67;0.73;;;;;;;15.07;100.00;94782.50;4983129;28;20462;-90
2022/06/11 02:35:38;;;;;;;1.13;0.52;;;;;;;14.90;100.00;94778.50;4999352;28;20041;-90
2022/06/11 02:38:08;;;;;;;1.52;0.80;;;;;;;15.02;100.00;94783.34;4999368;28;20030;-91
2022/06/11 02:40:46;;;;;;;1.23;0.82;;;;;;;15.11;100.00;94784.28;4999206;28;20084;-90
2022/06/11 02:43:11;;;;;;;0.80;0.70;;;;;;;15.02;100.00;94783.34;4999277;28;20032;-90
2022/06/11 02:45:37;;;;;;;2.85;0.68;;;;;;;15.04;100.00;94781.19;4999213;28;20026;-91
2022/06/11 02:48:03;;;;;;;1.58;0.70;;;;;;;15.08;100.00;94779.56;4999309;28;20458;-90
2022/06/11 02:50:31;;;;;;;2.50;0.82;;;;;;;15.17;100.00;94776.28;4999285;28;20050;-90
2022/06/11 02:52:58;;;;;;;0.90;0.60;;;;;;;15.27;100.00;94786.69;4983091;28;20454;-91
2022/06/11 02:55:25;;;;;;;1.27;0.80;;;;;;;15.27;100.00;94784.06;4982917;28;20120;-91
2022/06/11 02:57:50;;;;;;;0.88;0.60;;;;;;;15.25;100.00;94788.84;4999317;28;20030;-91
2022/06/11 03:00:23;;;;;;;4.95;0.90;;;;;;;15.43;100.00;94782.00;4998872;28;20034;-90
2022/06/11 03:02:49;;;;;;;4.32;0.68;;;;;;;15.22;100.00;94784.91;4998928;28;20034;-91
2022/06/11 03:05:21;;;;;;;1.35;0.73;;;;;;;15.02;100.00;94791.25;4998869;28;20317;-91
2022/06/11 03:07:47;;;;;;;0.82;0.68;;;;;;;15.24;100.00;94787.28;4998860;28;20032;-90
2022/06/11 03:10:15;;;;;;;0.75;0.65;;;;;;;15.08;100.00;94791.97;4998660;28;20030;-89
2022/06/11 03:12:40;;;;;;;1.45;0.85;;;;;;;15.24;100.00;94793.31;4999298;28;20034;-89
2022/06/11 03:15:06;;;;;;;2.58;0.60;;;;;;;15.32;100.00;94799.81;4998911;28;20057;-89
2022/06/11 03:17:34;;;;;;;2.95;0.60;;;;;;;15.17;100.00;94800.03;4998887;28;20030;-89
2022/06/11 03:20:00;;;;;;;0.40;0.40;;;;;;;14.80;100.00;94805.00;4969726;28;20428;-89
2022/06/11 03:22:26;;;;;;;3.78;0.80;;;;;;;15.09;100.00;94801.47;4979302;28;20034;-89
2022/06/11 03:24:53;;;;;;;4.05;0.70;;;;;;;15.12;100.00;94806.97;4986179;28;20103;-90
2022/06/11 03:27:19;;;;;;;2.97;0.70;;;;;;;15.01;100.00;94802.88;4982467;28;20462;-90
2022/06/11 03:29:45;;;;;;;1.02;0.80;;;;;;;14.82;100.00;94811.56;4982261;28;20035;-89
2022/06/11 03:32:11;;;;;;;1.00;0.70;;;;;;;14.92;100.00;94809.84;4998626;28;20344;-90
2022/06/11 03:34:36;;;;;;;2.28;0.70;;;;;;;14.86;100.00;94811.00;4999444;28;20042;-90
2022/06/11 03:37:03;;;;;;;2.75;1.02;;;;;;;14.57;100.00;94815.28;4999406;28;20352;-90
2022/06/11 03:39:29;;;;;;;1.08;0.80;;;;;;;14.62;100.00;94815.19;4998185;28;20491;-90
2022/06/11 03:41:55;;;;;;;2.30;0.90;;;;;;;14.62;100.00;94811.75;4998513;28;20065;-91
2022/06/11 03:44:21;;;;;;;2.28;1.02;;;;;;;14.53;100.00;94809.75;4998150;28;20497;-89
2022/06/11 03:46:47;;;;;;;3.63;0.88;;;;;;;14.78;100.00;94809.78;4998248;28;20360;-90
2022/06/11 03:49:12;;;;;;;3.65;0.80;;;;;;;14.94;100.00;94813.78;4983377;28;20031;-91
2022/06/11 03:51:39;;;;;;;3.03;0.88;;;;;;;14.91;100.00;94814.34;4978462;28;20041;-90
2022/06/11 03:54:04;;;;;;;1.15;0.70;;;;;;;14.85;100.00;94807.59;4978506;28;20038;-89
2022/06/11 03:56:36;;;;;;;0.95;0.85;;;;;;;14.78;100.00;94813.22;4979904;28;20344;-89
2022/06/11 03:59:02;;;;;;;2.47;0.70;;;;;;;14.77;100.00;94821.38;4963181;28;20477;-90
2022/06/11 04:01:28;;;;;;;2.60;0.85;;;;;;;14.98;100.00;94819.28;4978584;28;20066;-90
2022/06/11 04:04:01;;;;;;;1.05;0.90;;;;;;;15.10;100.00;94824.94;4978315;28;20069;-89
2022/06/11 04:06:33;;;;;;;0.83;0.60;;;;;;;15.21;100.00;94828.22;4962355;28;20030;-89
2022/06/11 04:08:59;;;;;;;3.28;1.10;;;;;;;15.19;100.00;94829.56;4978382;28;20269;-90
2022/06/11 04:11:25;;;;;;;3.25;0.90;;;;;;;14.62;100.00;94820.47;4962407;28;20451;-90
2022/06/11 04:13:52;;;;;;;2.35;0.82;;;;;;;14.41;100.00;94825.19;4962280;28;20030;-90
2022/06/11 04:16:31;;;;;;;2.67;0.85;;;;;;;14.44;100.00;94824.63;4978039;28;20042;-89
2022/06/11 04:18:59;;;;;;;1.02;0.90;;;;;;;14.27;100.00;94825.84;4978525;28;20034;-89
2022/06/11 04:21:26;;;;;;;1.05;0.80;;;;;;;14.68;100.00;94826.47;4962407;28;20031;-91
2022/06/11 04:23:53;;;;;;;0.75;0.75;;;;;;;14.86;100.00;94824.97;4977951;28;20030;-89
2022/06/11 04:26:23;;;;;;;1.67;1.00;;;;;;;15.07;100.00;94819.44;4978469;28;20039;-88
2022/06/11 04:28:49;;;;;;;1.88;1.02;;;;;;;15.27;100.00;94831.56;4962144;28;20085;-90
2022/06/11 04:31:15;;;;;;;1.77;0.80;;;;;;;15.18;100.00;94831.44;4961775;28;20034;-90
2022/06/11 04:33:47;;;;;;;3.97;1.00;;;;;;;15.36;100.00;94829.88;4977762;28;20057;-89
2022/06/11 04:36:13;;;;;;;3.95;0.85;;;;;;;15.75;100.00;94840.38;4962052;28;20038;-89
2022/06/11 04:38:39;;;;;;;2.97;0.80;;;;;;;15.56;100.00;94838.56;4977887;28;20034;-89
2022/06/11 04:41:06;;;;;;;1.85;0.85;;;;;;;15.52;100.00;94830.41;4961973;28;20035;-89
2022/06/11 04:43:31;;;;;;;2.00;1.15;;;;;;;15.68;100.00;94835.47;4962056;28;20392;-90
2022/06/11 04:45:57;;;;;;;3.45;0.85;;;;;;;15.67;100.00;94831.25;4961686;28;20030;-90
2022/06/11 04:48:22;;;;;;;1.30;0.90;;;;;;;15.91;100.00;94839.09;4961674;28;20044;-92
2022/06/11 04:50:48;;;;;;;1.33;0.95;;;;;;;16.01;100.00;94834.72;4961460;28;20499;-91
2022/06/11 04:53:13;;;;;;;1.90;0.90;;;;;;;15.98;100.00;94833.44;4977536;28;20035;-91
2022/06/11 04:55:40;;;;;;;1.80;0.95;;;;;;;16.08;100.00;94840.44;4977353;28;20042;-91
2022/06/11 04:58:06;;;;;;;1.48;0.88;;;;;;;15.59;100.00;94845.91;4970398;28;20030;-92
2022/06/11 05:00:32;;;;;;;1.95;0.75;;;;;;;15.76;100.00;94841.94;4958292;29;20030;-92
2022/06/11 05:02:57;;;;;;;5.63;1.20;;;;;;;15.96;100.00;94839.03;4958000;29;20031;-91
2022/06/11 05:05:23;;;;;;;1.63;1.00;;;;;;;16.08;100.00;94843.84;4958011;29;20102;-91
2022/06/11 05:07:49;;;;;;;1.10;0.95;;;;;;;16.25;100.00;94839.84;4963479;28;20086;-92
2022/06/11 05:10:17;;;;;;;1.27;0.90;;;;;;;16.15;100.00;94840.81;4977053;28;20041;-91
2022/06/11 05:12:42;;;;;;;2.72;1.10;;;;;;;16.37;100.00;94842.06;4960986;28;20035;-91
2022/06/11 05:15:09;;;;;;;1.20;0.93;;;;;;;15.91;100.00;94851.53;4977034;28;20034;-92
2022/06/11 05:17:35;;;;;;;7.45;1.08;;;;;;;16.25;100.00;94845.94;4976869;28;20035;-92
2022/06/11 05:20:00;;;;;;;1.83;1.15;;;;;;;16.34;100.00;94842.59;4977450;28;20088;-91
2022/06/11 05:22:26;;;;;;;1.70;1.48;;;;;;;15.97;100.00;94853.00;4967631;28;20039;-91
2022/06/11 05:24:52;;;;;;;6.15;1.50;;;;;;;16.07;100.00;94844.91;4958765;28;20031;-91
2022/06/11 05:27:20;;;;;;;2.47;1.38;;;;;;;16.29;100.00;94854.09;4957645;29;20043;-91
2022/06/11 05:30:15;;;;;;;7.93;1.13;;;;;;;16.64;100.00;94853.69;4956659;28;20031;-91
2022/06/11 05:32:41;;;;;;;2.30;1.30;;;;;;;17.05;100.00;94857.47;4958652;28;20357;-91
2022/06/11 05:35:11;;;;;;;3.15;1.25;;;;;;;17.17;100.00;94860.38;4957515;29;20100;-90
2022/06/11 05:37:37;;;;;;;2.35;1.35;;;;;;;17.16;100.00;94855.38;4957506;29;20034;-91
2022/06/11 05:40:05;;;;;;;1.60;1.20;;;;;;;17.46;100.00;94867.19;4957408;29;20121;-90
2022/06/11 05:42:31;;;;;;;1.50;1.30;;;;;;;17.67;100.00;94867.53;4941820;29;20031;-90
2022/06/11 05:44:57;;;;;;;2.78;1.50;;;;;;;17.76;100.00;94869.44;4957445;29;20028;-91
2022/06/11 05:47:24;;;;;;;2.05;1.33;;;;;;;17.69;100.00;94867.19;4958608;28;20039;-91
2022/06/11 05:49:52;;;;;;;3.30;1.33;;;;;;;17.67;100.00;94870.16;4958193;28;20035;-86
2022/06/11 05:52:22;;;;;;;3.63;1.10;;;;;;;17.77;100.00;94868.34;4965785;28;20351;-86
2022/06/11 05:54:48;;;;;;;2.33;1.05;;;;;;;17.68;100.00;94868.28;4977681;28;20030;-86
2022/06/11 05:57:16;;;;;;;1.73;0.95;;;;;;;18.19;100.00;94873.50;4960680;28;20033;-86
2022/06/11 05:59:47;;;;;;;1.63;1.00;;;;;;;18.46;100.00;94869.91;4976738;28;20062;-86
2022/06/11 06:02:15;;;;;;;1.50;0.90;;;;;;;18.66;100.00;94875.78;4976573;28;20031;-87
2022/06/11 06:04:41;;;;;;;1.73;0.90;;;;;;;18.60;100.00;94875.13;4962127;28;20450;-86
2022/06/11 06:07:07;;;;;;;1.40;1.02;;;;;;;18.89;100.00;94878.34;4957264;29;20039;-86
2022/06/11 06:09:33;;;;;;;0.80;0.77;;;;;;;19.11;100.00;94876.72;4958192;28;20451;-86
2022/06/11 06:11:58;;;;;;;1.80;1.10;;;;;;;18.80;100.00;94878.31;4941383;29;20043;-85
2022/06/11 06:14:24;;;;;;;1.20;1.00;;;;;;;19.13;100.00;94879.84;4958182;28;20031;-86
2022/06/11 06:16:50;;;;;;;2.38;1.30;;;;;;;19.17;100.00;94884.25;4957097;29;20042;-85
2022/06/11 06:19:18;;;;;;;1.58;1.00;;;;;;;19.06;100.00;94881.06;4957000;29;20039;-86
2022/06/11 06:21:44;;;;;;;1.45;1.00;;;;;;;19.10;100.00;94888.44;4941360;29;20512;-85
2022/06/11 06:24:10;;;;;;;5.55;1.38;;;;;;;19.18;100.00;94887.66;4957346;29;20043;-87
2022/06/11 06:26:36;;;;;;;1.60;0.82;;;;;;;18.81;100.00;94889.72;4959274;28;20377;-86
2022/06/11 06:29:02;;;;;;;2.60;1.10;;;;;;;18.70;100.00;94887.34;4960086;28;20070;-87
2022/06/11 06:31:27;;;;;;;1.40;0.93;;;;;;;19.11;100.00;94879.38;4960653;28;20035;-86
2022/06/11 06:33:53;;;;;;;5.75;1.08;;;;;;;19.27;100.00;94888.47;4976547;28;20046;-86
2022/06/11 06:36:19;;;;;;;3.83;1.33;;;;;;;19.30;100.00;94890.50;4977627;28;20345;-87
2022/06/11 06:38:45;;;;;;;3.17;1.05;;;;;;;18.94;100.00;94891.50;4975941;28;20062;-86
2022/06/11 06:41:12;;;;;;;3.33;0.90;;;;;;;19.28;100.00;94887.38;4978640;28;20034;-87
2022/06/11 06:43:38;;;;;;;1.13;1.00;;;;;;;19.62;100.00;94888.50;4980358;28;20039;-85
2022/06/11 06:46:04;;;;;;;1.90;1.08;;;;;;;19.53;100.00;94901.03;4980969;28;20428;-87
2022/06/11 06:48:30;;;;;;;2.63;1.20;;;;;;;19.45;100.00;94891.94;4979963;28;20090;-86
2022/06/11 06:50:55;;;;;;;5.65;1.10;;;;;;;19.66;100.00;94894.00;4979579;28;20034;-87
2022/06/11 06:53:21;;;;;;;1.27;1.00;;;;;;;19.11;100.00;94900.63;4979936;28;20496;-86
2022/06/11 06:55:48;;;;;;;2.35;1.10;;;;;;;19.50;100.00;94901.63;4979832;28;20428;-86
2022/06/11 06:58:16;;;;;;;11.13;3.20;;;;;;;19.62;100.00;94907.09;4981032;28;20093;-86
2022/06/11 07:00:43;;;;;;;9.25;2.33;;;;;;;20.00;100.00;94913.72;4979448;28;20448;-86
2022/06/11 07:03:08;;;;;;;2.90;0.88;;;;;;;19.26;100.00;94913.47;4979776;28;20046;-86
2022/06/11 07:05:34;;;;;;;3.97;1.13;;;;;;;19.87;100.00;94912.75;4979287;28;20034;-87
2022/06/11 07:07:59;;;;;;;9.27;1.60;;;;;;;20.03;100.00;94913.09;4979610;28;20031;-87
2022/06/11 07:10:25;;;;;;;1.20;1.10;;;;;;;19.57;100.00;94915.25;4963349;28;20038;-86
2022/06/11 07:12:51;;;;;;;3.58;1.33;;;;;;;19.34;100.00;94909.28;4963418;28;20121;-87
2022/06/11 07:15:16;;;;;;;10.20;1.70;;;;;;;19.49;100.00;94906.16;4979770;28;20440;-86
2022/06/11 07:17:55;;;;;;;7.70;1.90;;;;;;;20.09;100.00;94900.44;4963057;28;20043;-86
2022/06/11 07:20:24;;;;;;;24.75;3.33;;;;;;;20.25;100.00;94903.38;4980291;28;20034;-86
2022/06/11 07:22:57;;;;;;;16.58;3.00;;;;;;;20.45;100.00;94904.56;4979412;28;20339;-86
2022/06/11 07:25:24;;;;;;;8.80;2.30;;;;;;;20.51;100.00;94909.72;4963161;28;20464;-86
2022/06/11 07:27:54;;;;;;;15.73;2.88;;;;;;;20.75;100.00;94909.97;4980699;28;20039;-86
2022/06/11 07:30:23;;;;;;;3.83;1.20;;;;;;;20.74;100.00;94908.41;4979184;28;20058;-87
2022/06/11 07:32:52;;;;;;;2.03;1.15;;;;;;;21.00;100.00;94904.09;4963038;28;20389;-86
2022/06/11 07:35:17;;;;;;;5.78;1.27;;;;;;;21.01;100.00;94905.66;4978774;28;20326;-86
2022/06/11 07:37:44;;;;;;;2.10;1.23;;;;;;;21.28;100.00;94908.97;4978835;28;20030;-86
2022/06/11 07:40:10;;;;;;;9.10;1.50;;;;;;;21.20;100.00;94907.91;4978962;28;20133;-86
2022/06/11 07:42:36;;;;;;;4.03;1.48;;;;;;;21.44;100.00;94907.31;4978942;28;20117;-86
2022/06/11 07:45:01;;;;;;;5.05;2.15;;;;;;;21.41;100.00;94907.19;4979014;28;20034;-85
2022/06/11 07:50:12;;;;;;;5.45;1.90;;;;;;;21.42;100.00;94914.06;4978624;28;20396;-86
2022/06/11 07:52:41;;;;;;;2.58;1.25;;;;;;;21.68;100.00;94910.50;4961469;28;20038;-86
2022/06/11 07:55:08;;;;;;;2.90;1.20;;;;;;;21.66;86.09;94910.00;4978454;28;20030;-86
2022/06/11 07:57:38;;;;;;;9.93;2.45;;;;;;;21.95;94.62;94909.16;4978647;28;20402;-86
2022/06/11 08:00:06;;;;;;;2.65;1.45;;;;;;;22.01;95.37;94918.53;4978366;28;20027;-86
2022/06/11 08:02:31;;;;;;;1.55;1.25;;;;;;;22.07;92.83;94921.00;4978188;28;20034;-86
2022/06/11 08:04:57;;;;;;;4.32;1.50;;;;;;;21.92;99.85;94919.69;4978322;28;20072;-86
2022/06/11 08:07:23;;;;;;;4.22;1.40;;;;;;;21.51;98.14;94914.00;4978235;28;20092;-87
2022/06/11 08:09:48;;;;;;;7.40;2.08;;;;;;;21.88;100.00;94914.25;4978264;28;20495;-87
2022/06/11 08:12:14;;;;;;;6.00;1.50;;;;;;;21.96;91.80;94918.72;4978421;28;20039;-86
2022/06/11 08:14:39;;;;;;;2.88;1.30;;;;;;;21.95;100.00;94919.03;4978984;28;20031;-86
2022/06/11 08:17:04;;;;;;;3.08;1.10;;;;;;;22.06;100.00;94914.13;4979326;28;20113;-87
2022/06/11 08:19:30;;;;;;;3.60;1.20;;;;;;;22.03;98.71;94911.00;4979453;28;20030;-86
2022/06/11 08:21:56;;;;;;;9.10;1.52;;;;;;;22.33;100.00;94912.00;4979205;28;20030;-87
2022/06/11 08:24:22;;;;;;;1.88;1.20;;;;;;;22.18;97.53;94919.50;4978207;28;20045;-87
2022/06/11 08:26:48;;;;;;;6.82;1.55;;;;;;;22.06;100.00;94922.13;4979390;28;20027;-87
2022/06/11 08:29:13;;;;;;;2.53;1.38;;;;;;;22.08;100.00;94923.31;4961797;28;20038;-88
2022/06/11 08:31:39;;;;;;;3.63;1.30;;;;;;;22.20;100.00;94927.94;4979398;28;20356;-87
2022/06/11 08:34:04;;;;;;;4.20;1.45;;;;;;;22.60;99.18;94926.66;4962452;28;20038;-87
2022/06/11 08:36:30;;;;;;;3.38;1.42;;;;;;;22.51;92.70;94918.72;4978005;28;20113;-87
2022/06/11 08:38:56;;;;;;;2.63;1.13;;;;;;;22.21;100.00;94926.84;4977872;28;20027;-87
2022/06/11 08:41:25;;;;;;;3.55;1.35;;;;;;;22.48;100.00;94923.94;4963689;28;20459;-87
2022/06/11 08:43:57;;;;;;;32.55;5.13;;;;;;;22.75;90.72;94927.91;4958541;29;20053;-87
2022/06/11 08:46:25;;;;;;;18.80;2.13;;;;;;;22.96;97.53;94929.69;4958482;29;20118;-87
2022/06/11 08:49:32;;;;;;;18.98;2.45;;;;;;;22.85;88.92;94932.03;4942537;29;20034;-88
2022/06/11 08:52:04;;;;;;;44.88;5.00;;;;;;;23.07;87.65;94938.84;4919158;29;20038;-87
2022/06/11 08:54:33;;;;;;;2.65;1.55;;;;;;;23.16;84.49;94933.41;4948305;29;20035;-87
2022/06/11 08:57:22;;;;;;;2.97;1.50;;;;;;;22.63;75.31;94939.34;4942464;29;20102;-88
2022/06/11 09:00:03;;;;;;;4.47;1.40;;;;;;;23.16;75.23;94936.06;4959127;28;20109;-88
2022/06/11 09:02:50;;;;;;;3.45;1.70;;;;;;;22.86;73.71;94934.34;4959393;28;20147;-87
2022/06/11 09:05:40;;;;;;;1.65;1.13;;;;;;;23.09;74.30;94930.47;4959403;28;20461;-87
2022/06/11 09:08:44;;;;;;;3.22;1.60;;;;;;;23.41;85.75;94931.50;4959089;28;20078;-88
2022/06/11 09:11:21;;;;;;;3.90;1.55;;;;;;;23.23;76.38;94922.91;4958075;29;20027;-87
2022/06/11 09:14:06;;;;;;;8.45;3.13;;;;;;;23.31;90.50;94929.28;4958952;28;20031;-88
2022/06/11 09:16:38;;;;;;;11.15;4.95;;;;;;;23.50;80.17;94918.00;4958888;28;20039;-88
2022/06/11 09:19:28;;;;;;;3.45;1.63;;;;;;;23.32;71.42;94922.06;4958171;29;20038;-87
2022/06/11 09:22:16;;;;;;;1.58;1.20;;;;;;;22.97;71.31;94929.38;4958155;28;20062;-88
2022/06/11 09:24:44;;;;;;;4.03;1.52;;;;;;;23.10;73.93;94935.50;4958855;28;20452;-88
2022/06/11 09:27:22;;;;;;;2.42;1.38;;;;;;;23.43;75.37;94934.63;4957860;28;20039;-87
2022/06/11 09:30:00;;;;;;;2.03;1.10;;;;;;;23.72;74.20;94935.47;4957784;29;20030;-88
2022/06/11 09:32:35;;;;;;;1.45;1.13;;;;;;;23.84;70.04;94931.22;4958738;28;20070;-89
2022/06/11 09:35:11;;;;;;;2.30;1.00;;;;;;;23.87;70.63;94943.91;4941937;29;20031;-87
2022/06/11 09:37:58;;;;;;;1.30;1.20;;;;;;;23.96;69.98;94933.09;4957821;29;20027;-90
2022/06/11 09:40:44;;;;;;;3.17;1.20;;;;;;;24.04;72.71;94936.78;4957364;29;20350;-90
2022/06/11 09:43:39;;;;;;;2.83;1.15;;;;;;;23.75;65.99;94935.94;4957706;29;20026;-90
2022/06/11 09:46:11;;;;;;;4.95;1.30;;;;;;;23.66;74.92;94936.03;4957331;28;20027;-89
2022/06/11 09:48:42;;;;;;;1.27;1.10;;;;;;;23.75;71.85;94934.03;4961015;28;20038;-88
2022/06/11 09:51:41;;;;;;;1.00;0.82;;;;;;;24.16;70.44;94933.25;4978090;28;20066;-89
2022/06/11 09:54:34;;;;;;;1.45;1.30;;;;;;;23.78;100.00;94936.00;4977776;28;20030;-92
2022/06/11 09:57:37;;;;;;;3.77;1.00;;;;;;;23.83;73.21;94930.44;4978037;28;20062;-89
2022/06/11 10:00:12;;;;;;;1.48;1.15;;;;;;;23.96;78.63;94938.44;4977908;28;20463;-90
2022/06/11 10:05:20;;;;;;;1.42;1.17;;;;;;;24.43;66.33;94932.47;4976473;28;20023;-91
2022/06/11 10:07:51;;;;;;;3.22;1.00;;;;;;;24.39;68.88;94928.94;4976696;28;20031;-89
2022/06/11 10:10:23;;;;;;;1.65;1.10;;;;;;;23.66;73.21;94925.34;4960772;28;20360;-90
2022/06/11 10:12:56;;;;;;;5.93;1.20;;;;;;;23.51;79.40;94926.81;4960636;28;20359;-90
2022/06/11 10:15:32;;;;;;;5.13;1.30;;;;;;;24.03;73.53;94922.59;4977595;28;20498;-89
2022/06/11 10:18:28;;;;;;;1.60;1.08;;;;;;;24.09;73.08;94926.59;4963801;28;20428;-88
2022/06/11 10:20:59;;;;;;;2.17;1.35;;;;;;;23.50;74.36;94928.72;4979249;28;20045;-91
2022/06/11 10:23:48;;;;;;;3.50;1.45;;;;;;;23.60;73.51;94932.84;4980175;28;20352;-91
2022/06/11 10:26:27;;;;;;;2.45;1.30;;;;;;;24.26;76.92;94930.88;4980350;28;20038;-88
2022/06/11 10:29:20;;;;;;;3.05;1.30;;;;;;;24.47;72.00;94934.47;4980301;28;20452;-90
2022/06/11 10:32:16;;;;;;;2.28;1.13;;;;;;;24.30;66.47;94920.25;4981538;28;20031;-89
2022/06/11 10:34:46;;;;;;;3.60;1.20;;;;;;;24.29;71.33;94919.47;4979161;28;20035;-89
2022/06/11 10:37:22;;;;;;;1.00;0.90;;;;;;;24.07;69.98;94914.69;4980282;28;20033;-88
2022/06/11 10:39:56;;;;;;;2.00;1.30;;;;;;;24.77;70.11;94915.34;4964188;28;20340;-89
2022/06/11 10:42:25;;;;;;;1.50;1.08;;;;;;;24.39;63.09;94922.78;4981100;28;20031;-89
2022/06/11 10:44:54;;;;;;;1.58;1.23;;;;;;;24.54;63.79;94923.94;4980996;28;20022;-88
2022/06/11 10:47:26;;;;;;;1.42;1.20;;;;;;;24.96;65.44;94910.09;4964038;28;20035;-89
2022/06/11 10:50:18;;;;;;;2.22;1.13;;;;;;;24.64;62.24;94922.66;4964262;28;20022;-90
2022/06/11 10:52:53;;;;;;;4.00;1.10;;;;;;;25.07;74.53;94921.06;4979735;28;20079;-91
2022/06/11 10:55:48;;;;;;;2.13;1.05;;;;;;;24.89;69.37;94917.94;4979630;28;20556;-91
2022/06/11 10:58:22;;;;;;;1.27;0.90;;;;;;;25.35;65.29;94917.47;4980107;28;20432;-89
2022/06/11 11:00:51;;;;;;;1.55;0.93;;;;;;;25.48;67.80;94910.13;4963818;28;20033;-91
2022/06/11 11:03:37;;;;;;;3.25;1.27;;;;;;;24.60;71.36;94913.72;4979219;28;20129;-91
2022/06/11 11:06:06;;;;;;;2.72;1.20;;;;;;;24.31;66.48;94919.16;4994095;28;20038;-89
2022/06/11 11:08:34;;;;;;;3.55;1.15;;;;;;;24.39;73.96;94912.88;4999302;28;20038;-87
2022/06/11 11:11:00;;;;;;;2.00;0.98;;;;;;;24.49;74.87;94910.78;4999822;28;20089;-88
2022/06/11 11:13:34;;;;;;;1.38;1.00;;;;;;;24.13;68.97;94914.09;4982720;28;20033;-88
2022/06/11 11:16:09;;;;;;;2.33;1.08;;;;;;;24.16;63.81;94914.53;4982432;28;20084;-87
2022/06/11 11:18:57;;;;;;;1.35;1.02;;;;;;;24.29;63.14;94913.34;5000323;28;20424;-87
2022/06/11 11:21:31;;;;;;;4.32;1.23;;;;;;;24.28;65.07;94904.53;4992523;28;20482;-88
2022/06/11 11:24:02;;;;;;;1.98;1.10;;;;;;;24.28;68.68;94903.78;4998850;28;20129;-88
2022/06/11 11:26:32;;;;;;;5.60;1.15;;;;;;;24.77;63.68;94899.28;4981389;28;20026;-88
2022/06/11 11:29:21;;;;;;;2.13;1.23;;;;;;;25.11;65.13;94903.16;4998953;28;20073;-90
2022/06/11 11:32:11;;;;;;;1.42;1.13;;;;;;;24.80;68.23;94904.72;4998510;28;20022;-89
2022/06/11 11:34:47;;;;;;;2.63;1.30;;;;;;;24.95;64.43;94903.16;4985759;28;20113;-88
2022/06/11 11:37:15;;;;;;;5.85;1.30;;;;;;;24.64;63.69;94902.00;4979319;28;20066;-87
2022/06/11 11:39:49;;;;;;;2.28;0.98;;;;;;;24.66;65.07;94907.00;4979876;28;20030;-88
2022/06/11 11:42:17;;;;;;;;;;;;;;;24.70;63.33;94903.31;4980941;28;20038;-87
2022/06/11 11:44:49;;;;;;;1.45;1.00;;;;;;;24.83;61.92;94897.91;4979034;28;20308;-88
2022/06/11 11:47:28;;;;;;;1.15;0.90;;;;;;;25.08;68.17;94903.06;4979147;28;20041;-88
2022/06/11 11:50:09;;;;;;;6.18;1.13;;;;;;;24.73;63.74;94903.75;4978929;28;20030;-87
2022/06/11 11:52:40;;;;;;;4.78;1.20;;;;;;;25.13;60.53;94900.13;4978885;28;20030;-88
2022/06/11 11:55:14;;;;;;;3.00;1.10;;;;;;;25.66;66.39;94904.34;4962262;28;20042;-87